Guetersloh, Germany

1:52 PM CEST on September 01, 2014 (GMT +0200)
INRWVERL2 | Change Station
CLOSE
Current Station
Personal Weather Station
Location: Verl, NRW
Elevation: 282 ft
Nearby Weather Stations

Elev 282 ft 51.89 °N, 8.46 °E | Updated 6 seconds ago

Scattered Clouds
Scattered Clouds
63.0 °F
Feels Like 63.0 °F
N
2.5
Wind Variable Wind from West
Gusts 4.9 mph

Today
High -- | Low -- °F
--% Chance of Precip.
Yesterday
High -- | Low -- °F
Precip. -- in
6:38 AM 8:14 PM
Waxing Crescent, 40% visible
Pressure 30.12 in
Visibility 6.2 miles
Clouds Scattered Clouds 2700 ft
Scattered Clouds 4100 ft
Dew Point 57 °F
Humidity 82%
Rainfall 0.02 in
Snow Depth Not available.
UV 2.0 out of 12
Pollen Not available.
Air Quality Not available.
Flu Activity Not available.
METAR EDLP 011150Z VRB07KT 9999 SCT027 SCT041 15/12 Q1020 RMK ATIS TAN

More Conditions Fewer Conditions

Pressure 30.12 in
Visibility 6.2 miles
Clouds Scattered Clouds 2700 ft
Scattered Clouds 4100 ft
Dew Point 57 °F
Humidity 82%
Rainfall 0.02 in
Snow Depth Not available.
UV 2.0 out of 12
Pollen Not available.
Air Quality Not available.
Flu Activity Not available.
METAR EDLP 011150Z VRB07KT 9999 SCT027 SCT041 15/12 Q1020 RMK ATIS TAN

More Conditions Fewer Conditions

10-Day Weather Forecast

Almanac

Astronomy

Sep. 01, 2014 Rise Set
Actual Time 6:38 AM CEST 8:14 PM CEST
Civil Twilight 6:03 AM CEST 8:49 PM CEST
Nautical Twilight 5:19 AM CEST 9:32 PM CEST
Astronomical Twilight 4:31 AM CEST 10:20 PM CEST
Moon 1:56 PM CEST 11:12 PM CEST
Length of Visible Light 14h 46m
Length of Day
13h 35m
Tomorrow will be 3m 52s shorter.
Waxing Crescent, 40% of the Moon is Illuminated
Today
Waxing Crescent
Sep 2
First Quarter
Sep 8
Full
Sep 15
Last Quarter
Sep 24
New

Yesterday's Extremes

Country Highs Country Lows

Community

WunderPhotos

Upload Photos

1,749,192 photos uploaded!

Nearby

Snow Depth

Not available.

Earthquake Activity

City Distance Mag. Time & Date
No recent earthquake activity has been reported nearby.
Minimum magnitude displayed is 2.5.

Coastal Water Temperatures

Place Temperature
No Stations Reporting

Nearby Weather Stations